sensor_id;sensor_type;location;lat;lon;timestamp;P1;durP1;ratioP1;P2;durP2;ratioP2
66402;SDS011;53212;52.112;5.144;2023-09-19T00:00:30;7.10;;;1.80;;
66402;SDS011;53212;52.112;5.144;2023-09-19T00:02:57;5.10;;;1.70;;
66402;SDS011;53212;52.112;5.144;2023-09-19T00:05:27;10.00;;;1.80;;
66402;SDS011;53212;52.112;5.144;2023-09-19T00:07:56;4.70;;;1.70;;
66402;SDS011;53212;52.112;5.144;2023-09-19T00:10:34;3.20;;;1.50;;
66402;SDS011;53212;52.112;5.144;2023-09-19T00:15:38;8.20;;;2.30;;
66402;SDS011;53212;52.112;5.144;2023-09-19T00:18:05;3.60;;;1.50;;
66402;SDS011;53212;52.112;5.144;2023-09-19T00:20:32;5.70;;;1.90;;
66402;SDS011;53212;52.112;5.144;2023-09-19T00:23:00;5.00;;;1.80;;
66402;SDS011;53212;52.112;5.144;2023-09-19T00:25:28;6.50;;;1.60;;
66402;SDS011;53212;52.112;5.144;2023-09-19T00:27:54;4.30;;;1.60;;
66402;SDS011;53212;52.112;5.144;2023-09-19T00:30:19;6.30;;;1.90;;
66402;SDS011;53212;52.112;5.144;2023-09-19T00:32:48;6.10;;;1.80;;
66402;SDS011;53212;52.112;5.144;2023-09-19T00:37:43;6.90;;;2.20;;
66402;SDS011;53212;52.112;5.144;2023-09-19T00:40:09;5.00;;;1.60;;
66402;SDS011;53212;52.112;5.144;2023-09-19T00:42:50;4.40;;;1.40;;
66402;SDS011;53212;52.112;5.144;2023-09-19T00:45:17;6.70;;;1.70;;
66402;SDS011;53212;52.112;5.144;2023-09-19T00:47:50;6.00;;;1.80;;
66402;SDS011;53212;52.112;5.144;2023-09-19T00:50:18;10.00;;;1.90;;
66402;SDS011;53212;52.112;5.144;2023-09-19T00:52:46;9.00;;;2.20;;
66402;SDS011;53212;52.112;5.144;2023-09-19T00:55:15;10.80;;;2.30;;
66402;SDS011;53212;52.112;5.144;2023-09-19T00:57:41;5.70;;;1.70;;
66402;SDS011;53212;52.112;5.144;2023-09-19T01:00:10;4.70;;;1.60;;
66402;SDS011;53212;52.112;5.144;2023-09-19T01:02:41;4.60;;;1.70;;
66402;SDS011;53212;52.112;5.144;2023-09-19T01:05:11;5.50;;;1.70;;
66402;SDS011;53212;52.112;5.144;2023-09-19T01:07:40;8.00;;;2.20;;
66402;SDS011;53212;52.112;5.144;2023-09-19T01:10:06;4.30;;;1.70;;
66402;SDS011;53212;52.112;5.144;2023-09-19T01:15:32;6.70;;;1.80;;
66402;SDS011;53212;52.112;5.144;2023-09-19T01:18:33;4.60;;;1.50;;
66402;SDS011;53212;52.112;5.144;2023-09-19T01:24:10;5.80;;;1.80;;
66402;SDS011;53212;52.112;5.144;2023-09-19T01:29:49;2.30;;;1.50;;
66402;SDS011;53212;52.112;5.144;2023-09-19T01:32:19;5.30;;;1.70;;
66402;SDS011;53212;52.112;5.144;2023-09-19T01:34:56;3.60;;;1.70;;
66402;SDS011;53212;52.112;5.144;2023-09-19T01:37:30;3.30;;;1.50;;
66402;SDS011;53212;52.112;5.144;2023-09-19T01:43:09;5.60;;;1.90;;
66402;SDS011;53212;52.112;5.144;2023-09-19T01:48:46;5.30;;;1.70;;
66402;SDS011;53212;52.112;5.144;2023-09-19T01:51:33;8.70;;;2.30;;
66402;SDS011;53212;52.112;5.144;2023-09-19T01:54:12;5.90;;;1.60;;
66402;SDS011;53212;52.112;5.144;2023-09-19T01:56:53;5.20;;;2.00;;
66402;SDS011;53212;52.112;5.144;2023-09-19T01:59:34;5.90;;;2.00;;
66402;SDS011;53212;52.112;5.144;2023-09-19T02:02:03;3.60;;;1.50;;
66402;SDS011;53212;52.112;5.144;2023-09-19T02:04:33;4.40;;;1.70;;
66402;SDS011;53212;52.112;5.144;2023-09-19T02:07:00;3.80;;;2.10;;
66402;SDS011;53212;52.112;5.144;2023-09-19T02:09:26;7.70;;;2.00;;
66402;SDS011;53212;52.112;5.144;2023-09-19T02:11:52;8.60;;;2.30;;
66402;SDS011;53212;52.112;5.144;2023-09-19T02:14:17;6.30;;;2.20;;
66402;SDS011;53212;52.112;5.144;2023-09-19T02:16:44;5.70;;;2.00;;
66402;SDS011;53212;52.112;5.144;2023-09-19T02:19:11;8.00;;;1.90;;
66402;SDS011;53212;52.112;5.144;2023-09-19T02:21:36;5.00;;;2.10;;
66402;SDS011;53212;52.112;5.144;2023-09-19T02:24:02;6.40;;;2.20;;
66402;SDS011;53212;52.112;5.144;2023-09-19T02:26:28;8.30;;;2.20;;
66402;SDS011;53212;52.112;5.144;2023-09-19T02:28:53;7.20;;;2.20;;
66402;SDS011;53212;52.112;5.144;2023-09-19T02:31:19;5.60;;;2.10;;
66402;SDS011;53212;52.112;5.144;2023-09-19T02:33:44;6.60;;;2.20;;
66402;SDS011;53212;52.112;5.144;2023-09-19T02:36:11;8.70;;;2.40;;
66402;SDS011;53212;52.112;5.144;2023-09-19T02:38:36;7.40;;;2.20;;
66402;SDS011;53212;52.112;5.144;2023-09-19T02:41:02;8.40;;;2.30;;
66402;SDS011;53212;52.112;5.144;2023-09-19T02:43:28;10.00;;;2.40;;
66402;SDS011;53212;52.112;5.144;2023-09-19T02:45:54;8.20;;;2.40;;
66402;SDS011;53212;52.112;5.144;2023-09-19T02:48:20;6.90;;;2.40;;
66402;SDS011;53212;52.112;5.144;2023-09-19T02:50:46;7.40;;;2.40;;
66402;SDS011;53212;52.112;5.144;2023-09-19T02:53:15;9.50;;;2.40;;
66402;SDS011;53212;52.112;5.144;2023-09-19T02:55:40;11.30;;;2.70;;
66402;SDS011;53212;52.112;5.144;2023-09-19T02:58:07;8.20;;;2.40;;
66402;SDS011;53212;52.112;5.144;2023-09-19T03:00:39;5.90;;;2.40;;
66402;SDS011;53212;52.112;5.144;2023-09-19T03:03:07;10.00;;;1.90;;
66402;SDS011;53212;52.112;5.144;2023-09-19T03:05:34;7.20;;;2.20;;
66402;SDS011;53212;52.112;5.144;2023-09-19T03:08:00;9.50;;;2.60;;
66402;SDS011;53212;52.112;5.144;2023-09-19T03:10:26;8.40;;;2.70;;
66402;SDS011;53212;52.112;5.144;2023-09-19T03:12:53;8.70;;;1.90;;
66402;SDS011;53212;52.112;5.144;2023-09-19T03:15:19;8.30;;;2.00;;
66402;SDS011;53212;52.112;5.144;2023-09-19T03:17:47;9.80;;;2.70;;
66402;SDS011;53212;52.112;5.144;2023-09-19T03:20:13;8.60;;;2.20;;
66402;SDS011;53212;52.112;5.144;2023-09-19T03:22:43;7.50;;;2.40;;
66402;SDS011;53212;52.112;5.144;2023-09-19T03:25:09;10.50;;;2.60;;
66402;SDS011;53212;52.112;5.144;2023-09-19T03:27:37;10.50;;;2.70;;
66402;SDS011;53212;52.112;5.144;2023-09-19T03:30:04;8.90;;;2.60;;
66402;SDS011;53212;52.112;5.144;2023-09-19T03:32:33;10.00;;;2.30;;
66402;SDS011;53212;52.112;5.144;2023-09-19T03:35:00;11.40;;;3.00;;
66402;SDS011;53212;52.112;5.144;2023-09-19T03:37:25;7.20;;;2.60;;
66402;SDS011;53212;52.112;5.144;2023-09-19T03:39:51;11.00;;;2.90;;
66402;SDS011;53212;52.112;5.144;2023-09-19T03:42:16;11.80;;;2.40;;
66402;SDS011;53212;52.112;5.144;2023-09-19T03:44:42;12.40;;;3.00;;
66402;SDS011;53212;52.112;5.144;2023-09-19T03:47:08;8.40;;;2.70;;
66402;SDS011;53212;52.112;5.144;2023-09-19T03:49:33;12.70;;;2.80;;
66402;SDS011;53212;52.112;5.144;2023-09-19T03:51:59;9.30;;;2.40;;
66402;SDS011;53212;52.112;5.144;2023-09-19T03:54:24;12.50;;;3.50;;
66402;SDS011;53212;52.112;5.144;2023-09-19T03:56:50;8.00;;;2.70;;
66402;SDS011;53212;52.112;5.144;2023-09-19T03:59:16;8.60;;;2.50;;
66402;SDS011;53212;52.112;5.144;2023-09-19T04:01:43;9.50;;;3.30;;
66402;SDS011;53212;52.112;5.144;2023-09-19T04:04:09;7.40;;;2.30;;
66402;SDS011;53212;52.112;5.144;2023-09-19T04:06:34;7.70;;;2.50;;
66402;SDS011;53212;52.112;5.144;2023-09-19T04:09:01;8.60;;;2.50;;
66402;SDS011;53212;52.112;5.144;2023-09-19T04:11:28;8.80;;;2.40;;
66402;SDS011;53212;52.112;5.144;2023-09-19T04:13:55;6.40;;;2.50;;
66402;SDS011;53212;52.112;5.144;2023-09-19T04:16:21;9.80;;;2.60;;
66402;SDS011;53212;52.112;5.144;2023-09-19T04:18:47;6.20;;;2.00;;
66402;SDS011;53212;52.112;5.144;2023-09-19T04:21:13;7.60;;;2.70;;
66402;SDS011;53212;52.112;5.144;2023-09-19T04:23:39;6.80;;;2.20;;
66402;SDS011;53212;52.112;5.144;2023-09-19T04:26:04;9.50;;;2.40;;
66402;SDS011;53212;52.112;5.144;2023-09-19T04:28:31;11.80;;;3.10;;
66402;SDS011;53212;52.112;5.144;2023-09-19T04:30:57;9.40;;;2.80;;
66402;SDS011;53212;52.112;5.144;2023-09-19T04:33:25;10.70;;;2.60;;
66402;SDS011;53212;52.112;5.144;2023-09-19T04:35:52;7.10;;;2.70;;
66402;SDS011;53212;52.112;5.144;2023-09-19T04:38:20;10.40;;;2.50;;
66402;SDS011;53212;52.112;5.144;2023-09-19T04:40:47;7.10;;;2.60;;
66402;SDS011;53212;52.112;5.144;2023-09-19T04:43:13;8.80;;;2.30;;
66402;SDS011;53212;52.112;5.144;2023-09-19T04:45:39;9.10;;;2.50;;
66402;SDS011;53212;52.112;5.144;2023-09-19T04:48:07;11.00;;;2.80;;
66402;SDS011;53212;52.112;5.144;2023-09-19T04:50:33;8.90;;;2.60;;
66402;SDS011;53212;52.112;5.144;2023-09-19T04:52:59;7.70;;;2.30;;
66402;SDS011;53212;52.112;5.144;2023-09-19T04:55:26;11.30;;;3.10;;
66402;SDS011;53212;52.112;5.144;2023-09-19T04:57:52;8.80;;;2.20;;
66402;SDS011;53212;52.112;5.144;2023-09-19T05:00:23;7.50;;;2.30;;
66402;SDS011;53212;52.112;5.144;2023-09-19T05:02:54;8.90;;;2.90;;
66402;SDS011;53212;52.112;5.144;2023-09-19T05:05:22;7.60;;;2.60;;
66402;SDS011;53212;52.112;5.144;2023-09-19T05:07:49;8.90;;;2.20;;
66402;SDS011;53212;52.112;5.144;2023-09-19T05:10:16;9.80;;;2.70;;
66402;SDS011;53212;52.112;5.144;2023-09-19T05:12:43;8.30;;;2.30;;
66402;SDS011;53212;52.112;5.144;2023-09-19T05:15:11;10.80;;;2.30;;
66402;SDS011;53212;52.112;5.144;2023-09-19T05:17:36;8.50;;;2.50;;
66402;SDS011;53212;52.112;5.144;2023-09-19T05:20:02;6.90;;;2.30;;
66402;SDS011;53212;52.112;5.144;2023-09-19T05:22:31;5.30;;;2.00;;
66402;SDS011;53212;52.112;5.144;2023-09-19T05:24:58;10.20;;;2.30;;
66402;SDS011;53212;52.112;5.144;2023-09-19T05:27:23;12.40;;;3.00;;
66402;SDS011;53212;52.112;5.144;2023-09-19T05:29:49;6.50;;;2.40;;
66402;SDS011;53212;52.112;5.144;2023-09-19T05:32:17;7.20;;;2.70;;
66402;SDS011;53212;52.112;5.144;2023-09-19T05:34:45;10.10;;;2.70;;
66402;SDS011;53212;52.112;5.144;2023-09-19T05:37:12;8.20;;;3.00;;
66402;SDS011;53212;52.112;5.144;2023-09-19T05:39:37;7.70;;;2.60;;
66402;SDS011;53212;52.112;5.144;2023-09-19T05:42:03;9.10;;;2.60;;
66402;SDS011;53212;52.112;5.144;2023-09-19T05:44:29;9.10;;;2.20;;
66402;SDS011;53212;52.112;5.144;2023-09-19T05:46:54;8.10;;;2.80;;
66402;SDS011;53212;52.112;5.144;2023-09-19T05:49:22;8.30;;;2.70;;
66402;SDS011;53212;52.112;5.144;2023-09-19T05:51:47;9.30;;;2.80;;
66402;SDS011;53212;52.112;5.144;2023-09-19T05:54:13;9.10;;;2.90;;
66402;SDS011;53212;52.112;5.144;2023-09-19T05:56:38;11.20;;;2.90;;
66402;SDS011;53212;52.112;5.144;2023-09-19T05:59:04;7.80;;;2.30;;
66402;SDS011;53212;52.112;5.144;2023-09-19T06:01:30;10.40;;;3.10;;
66402;SDS011;53212;52.112;5.144;2023-09-19T06:03:58;8.10;;;2.50;;
66402;SDS011;53212;52.112;5.144;2023-09-19T06:06:25;10.50;;;2.70;;
66402;SDS011;53212;52.112;5.144;2023-09-19T06:08:51;8.20;;;3.10;;
66402;SDS011;53212;52.112;5.144;2023-09-19T06:11:16;9.40;;;3.00;;
66402;SDS011;53212;52.112;5.144;2023-09-19T06:13:45;6.40;;;2.50;;
66402;SDS011;53212;52.112;5.144;2023-09-19T06:16:12;8.30;;;2.70;;
66402;SDS011;53212;52.112;5.144;2023-09-19T06:18:38;7.50;;;2.70;;
66402;SDS011;53212;52.112;5.144;2023-09-19T06:21:04;8.20;;;2.70;;
66402;SDS011;53212;52.112;5.144;2023-09-19T06:23:34;7.80;;;2.60;;
66402;SDS011;53212;52.112;5.144;2023-09-19T06:26:00;10.20;;;2.70;;
66402;SDS011;53212;52.112;5.144;2023-09-19T06:28:26;8.30;;;2.30;;
66402;SDS011;53212;52.112;5.144;2023-09-19T06:30:56;7.80;;;2.40;;
66402;SDS011;53212;52.112;5.144;2023-09-19T06:33:22;8.50;;;2.70;;
66402;SDS011;53212;52.112;5.144;2023-09-19T06:35:48;11.80;;;2.80;;
66402;SDS011;53212;52.112;5.144;2023-09-19T06:38:13;7.20;;;2.30;;
66402;SDS011;53212;52.112;5.144;2023-09-19T06:40:40;9.40;;;2.70;;
66402;SDS011;53212;52.112;5.144;2023-09-19T06:43:09;9.40;;;2.80;;
66402;SDS011;53212;52.112;5.144;2023-09-19T06:45:35;10.20;;;3.00;;
66402;SDS011;53212;52.112;5.144;2023-09-19T06:48:01;8.60;;;2.80;;
66402;SDS011;53212;52.112;5.144;2023-09-19T06:50:28;7.80;;;2.40;;
66402;SDS011;53212;52.112;5.144;2023-09-19T06:52:56;7.30;;;2.70;;
66402;SDS011;53212;52.112;5.144;2023-09-19T06:55:24;12.10;;;3.10;;
66402;SDS011;53212;52.112;5.144;2023-09-19T06:57:53;14.00;;;3.20;;
66402;SDS011;53212;52.112;5.144;2023-09-19T07:00:19;10.10;;;3.00;;
66402;SDS011;53212;52.112;5.144;2023-09-19T07:05:47;6.80;;;2.40;;
66402;SDS011;53212;52.112;5.144;2023-09-19T07:08:13;9.90;;;2.90;;
66402;SDS011;53212;52.112;5.144;2023-09-19T07:10:41;9.70;;;2.60;;
66402;SDS011;53212;52.112;5.144;2023-09-19T07:13:13;8.80;;;2.60;;
66402;SDS011;53212;52.112;5.144;2023-09-19T07:15:42;10.90;;;3.00;;
66402;SDS011;53212;52.112;5.144;2023-09-19T07:18:13;8.80;;;2.90;;
66402;SDS011;53212;52.112;5.144;2023-09-19T07:20:40;11.00;;;3.20;;
66402;SDS011;53212;52.112;5.144;2023-09-19T07:23:11;7.90;;;2.40;;
66402;SDS011;53212;52.112;5.144;2023-09-19T07:25:39;9.30;;;3.00;;
66402;SDS011;53212;52.112;5.144;2023-09-19T07:28:05;8.10;;;2.80;;
66402;SDS011;53212;52.112;5.144;2023-09-19T07:30:30;8.50;;;2.70;;
66402;SDS011;53212;52.112;5.144;2023-09-19T07:32:56;7.30;;;2.60;;
66402;SDS011;53212;52.112;5.144;2023-09-19T07:35:22;8.00;;;2.90;;
66402;SDS011;53212;52.112;5.144;2023-09-19T07:37:48;11.60;;;2.60;;
66402;SDS011;53212;52.112;5.144;2023-09-19T07:40:15;9.90;;;2.70;;
66402;SDS011;53212;52.112;5.144;2023-09-19T07:42:41;11.20;;;2.90;;
66402;SDS011;53212;52.112;5.144;2023-09-19T07:45:09;11.80;;;2.80;;
66402;SDS011;53212;52.112;5.144;2023-09-19T07:47:43;9.80;;;2.90;;
66402;SDS011;53212;52.112;5.144;2023-09-19T07:50:09;8.00;;;3.00;;
66402;SDS011;53212;52.112;5.144;2023-09-19T07:52:36;10.30;;;2.70;;
66402;SDS011;53212;52.112;5.144;2023-09-19T07:55:05;8.00;;;2.70;;
66402;SDS011;53212;52.112;5.144;2023-09-19T07:57:36;10.60;;;2.90;;
66402;SDS011;53212;52.112;5.144;2023-09-19T08:00:03;13.80;;;3.10;;
66402;SDS011;53212;52.112;5.144;2023-09-19T08:02:34;12.60;;;3.40;;
66402;SDS011;53212;52.112;5.144;2023-09-19T08:05:00;10.30;;;3.50;;
66402;SDS011;53212;52.112;5.144;2023-09-19T08:07:26;8.10;;;2.70;;
66402;SDS011;53212;52.112;5.144;2023-09-19T08:09:51;9.40;;;3.10;;
66402;SDS011;53212;52.112;5.144;2023-09-19T08:12:16;9.50;;;3.10;;
66402;SDS011;53212;52.112;5.144;2023-09-19T08:14:42;12.40;;;3.70;;
66402;SDS011;53212;52.112;5.144;2023-09-19T08:17:08;10.50;;;3.20;;
66402;SDS011;53212;52.112;5.144;2023-09-19T08:19:34;11.10;;;2.80;;
66402;SDS011;53212;52.112;5.144;2023-09-19T08:21:59;9.90;;;3.00;;
66402;SDS011;53212;52.112;5.144;2023-09-19T08:24:27;11.40;;;2.90;;
66402;SDS011;53212;52.112;5.144;2023-09-19T08:26:54;9.10;;;2.60;;
66402;SDS011;53212;52.112;5.144;2023-09-19T08:29:20;10.70;;;2.90;;
66402;SDS011;53212;52.112;5.144;2023-09-19T08:31:45;8.60;;;2.60;;
66402;SDS011;53212;52.112;5.144;2023-09-19T08:34:15;6.40;;;2.50;;
66402;SDS011;53212;52.112;5.144;2023-09-19T08:36:40;13.10;;;3.60;;
66402;SDS011;53212;52.112;5.144;2023-09-19T08:39:08;9.90;;;2.80;;
66402;SDS011;53212;52.112;5.144;2023-09-19T08:41:34;7.60;;;2.90;;
66402;SDS011;53212;52.112;5.144;2023-09-19T08:43:59;11.00;;;3.30;;
66402;SDS011;53212;52.112;5.144;2023-09-19T08:46:30;8.50;;;2.80;;
66402;SDS011;53212;52.112;5.144;2023-09-19T08:49:04;10.40;;;2.90;;
66402;SDS011;53212;52.112;5.144;2023-09-19T08:51:43;9.60;;;3.00;;
66402;SDS011;53212;52.112;5.144;2023-09-19T08:54:25;8.30;;;2.40;;
66402;SDS011;53212;52.112;5.144;2023-09-19T08:56:54;8.70;;;2.60;;
66402;SDS011;53212;52.112;5.144;2023-09-19T08:59:23;9.50;;;3.00;;
66402;SDS011;53212;52.112;5.144;2023-09-19T09:01:50;11.30;;;3.30;;
66402;SDS011;53212;52.112;5.144;2023-09-19T09:04:19;9.00;;;2.60;;
66402;SDS011;53212;52.112;5.144;2023-09-19T09:06:46;10.70;;;3.30;;
66402;SDS011;53212;52.112;5.144;2023-09-19T09:09:18;10.90;;;3.20;;
66402;SDS011;53212;52.112;5.144;2023-09-19T09:11:43;13.30;;;2.80;;
66402;SDS011;53212;52.112;5.144;2023-09-19T09:14:09;12.80;;;3.50;;
66402;SDS011;53212;52.112;5.144;2023-09-19T09:16:36;9.50;;;2.60;;
66402;SDS011;53212;52.112;5.144;2023-09-19T09:19:01;12.90;;;2.70;;
66402;SDS011;53212;52.112;5.144;2023-09-19T09:21:27;10.40;;;3.10;;
66402;SDS011;53212;52.112;5.144;2023-09-19T09:23:54;14.30;;;3.10;;
66402;SDS011;53212;52.112;5.144;2023-09-19T09:29:04;9.30;;;3.10;;
66402;SDS011;53212;52.112;5.144;2023-09-19T09:31:29;10.90;;;3.00;;
66402;SDS011;53212;52.112;5.144;2023-09-19T09:33:55;11.10;;;2.80;;
66402;SDS011;53212;52.112;5.144;2023-09-19T09:36:39;9.20;;;2.60;;
66402;SDS011;53212;52.112;5.144;2023-09-19T09:39:07;15.90;;;4.00;;
66402;SDS011;53212;52.112;5.144;2023-09-19T09:41:49;9.90;;;3.20;;
66402;SDS011;53212;52.112;5.144;2023-09-19T09:44:17;13.60;;;3.10;;
66402;SDS011;53212;52.112;5.144;2023-09-19T09:46:45;10.20;;;3.30;;
66402;SDS011;53212;52.112;5.144;2023-09-19T09:49:18;8.80;;;3.10;;
66402;SDS011;53212;52.112;5.144;2023-09-19T09:52:05;13.00;;;2.90;;
66402;SDS011;53212;52.112;5.144;2023-09-19T09:54:33;9.10;;;2.40;;
66402;SDS011;53212;52.112;5.144;2023-09-19T09:57:07;9.90;;;2.60;;
66402;SDS011;53212;52.112;5.144;2023-09-19T09:59:55;10.60;;;2.50;;
66402;SDS011;53212;52.112;5.144;2023-09-19T10:02:37;16.40;;;2.80;;
66402;SDS011;53212;52.112;5.144;2023-09-19T10:05:13;13.00;;;3.00;;
66402;SDS011;53212;52.112;5.144;2023-09-19T10:07:52;8.00;;;2.50;;
66402;SDS011;53212;52.112;5.144;2023-09-19T10:10:35;7.20;;;2.60;;
66402;SDS011;53212;52.112;5.144;2023-09-19T10:13:09;7.40;;;2.20;;
66402;SDS011;53212;52.112;5.144;2023-09-19T10:15:46;6.60;;;2.40;;
66402;SDS011;53212;52.112;5.144;2023-09-19T10:18:24;8.00;;;2.40;;
66402;SDS011;53212;52.112;5.144;2023-09-19T10:20:53;9.40;;;2.70;;
66402;SDS011;53212;52.112;5.144;2023-09-19T10:23:21;9.00;;;2.40;;
66402;SDS011;53212;52.112;5.144;2023-09-19T10:25:50;8.30;;;2.30;;
66402;SDS011;53212;52.112;5.144;2023-09-19T10:28:18;6.80;;;2.10;;
66402;SDS011;53212;52.112;5.144;2023-09-19T10:30:48;8.20;;;2.30;;
66402;SDS011;53212;52.112;5.144;2023-09-19T10:33:20;9.30;;;2.20;;
66402;SDS011;53212;52.112;5.144;2023-09-19T10:35:48;7.20;;;2.10;;
66402;SDS011;53212;52.112;5.144;2023-09-19T10:38:19;6.60;;;2.40;;
66402;SDS011;53212;52.112;5.144;2023-09-19T10:40:50;8.30;;;2.60;;
66402;SDS011;53212;52.112;5.144;2023-09-19T10:43:19;7.70;;;2.40;;
66402;SDS011;53212;52.112;5.144;2023-09-19T10:45:47;7.80;;;2.10;;
66402;SDS011;53212;52.112;5.144;2023-09-19T10:48:15;9.10;;;2.00;;
66402;SDS011;53212;52.112;5.144;2023-09-19T10:50:59;7.20;;;2.30;;
66402;SDS011;53212;52.112;5.144;2023-09-19T10:54:28;11.10;;;2.10;;
66402;SDS011;53212;52.112;5.144;2023-09-19T10:56:42;10.40;;;2.40;;
66402;SDS011;53212;52.112;5.144;2023-09-19T10:59:14;10.70;;;2.40;;
66402;SDS011;53212;52.112;5.144;2023-09-19T11:01:48;8.30;;;2.00;;
66402;SDS011;53212;52.112;5.144;2023-09-19T11:04:31;7.90;;;2.50;;
66402;SDS011;53212;52.112;5.144;2023-09-19T11:09:53;7.10;;;2.30;;
66402;SDS011;53212;52.112;5.144;2023-09-19T11:15:01;5.80;;;2.00;;
66402;SDS011;53212;52.112;5.144;2023-09-19T11:30:40;6.30;;;1.90;;
66402;SDS011;53212;52.112;5.144;2023-09-19T11:33:20;7.50;;;1.60;;
66402;SDS011;53212;52.112;5.144;2023-09-19T11:36:16;4.50;;;1.40;;
66402;SDS011;53212;52.112;5.144;2023-09-19T11:49:16;6.10;;;1.30;;
66402;SDS011;53212;52.112;5.144;2023-09-19T11:51:46;8.70;;;1.90;;
66402;SDS011;53212;52.112;5.144;2023-09-19T11:54:14;8.30;;;1.70;;
66402;SDS011;53212;52.112;5.144;2023-09-19T11:56:54;4.40;;;1.60;;
66402;SDS011;53212;52.112;5.144;2023-09-19T11:59:20;4.90;;;1.80;;
66402;SDS011;53212;52.112;5.144;2023-09-19T12:01:57;6.90;;;1.50;;
66402;SDS011;53212;52.112;5.144;2023-09-19T12:07:15;5.40;;;1.50;;
66402;SDS011;53212;52.112;5.144;2023-09-19T12:10:04;3.00;;;1.40;;
66402;SDS011;53212;52.112;5.144;2023-09-19T12:12:31;6.80;;;1.80;;
66402;SDS011;53212;52.112;5.144;2023-09-19T12:14:58;5.10;;;1.40;;
66402;SDS011;53212;52.112;5.144;2023-09-19T12:17:23;3.60;;;1.20;;
66402;SDS011;53212;52.112;5.144;2023-09-19T12:20:09;4.20;;;1.80;;
66402;SDS011;53212;52.112;5.144;2023-09-19T12:22:39;6.10;;;1.60;;
66402;SDS011;53212;52.112;5.144;2023-09-19T12:25:06;3.40;;;1.60;;
66402;SDS011;53212;52.112;5.144;2023-09-19T12:27:41;7.30;;;1.50;;
66402;SDS011;53212;52.112;5.144;2023-09-19T12:30:18;5.40;;;1.50;;
66402;SDS011;53212;52.112;5.144;2023-09-19T12:32:46;6.10;;;1.40;;
66402;SDS011;53212;52.112;5.144;2023-09-19T12:35:27;8.60;;;1.90;;
66402;SDS011;53212;52.112;5.144;2023-09-19T12:37:55;6.20;;;1.40;;
66402;SDS011;53212;52.112;5.144;2023-09-19T12:40:22;4.30;;;1.50;;
66402;SDS011;53212;52.112;5.144;2023-09-19T12:42:52;4.80;;;1.80;;
66402;SDS011;53212;52.112;5.144;2023-09-19T12:45:30;6.00;;;1.80;;
66402;SDS011;53212;52.112;5.144;2023-09-19T12:48:18;5.50;;;1.40;;
66402;SDS011;53212;52.112;5.144;2023-09-19T12:51:12;4.20;;;1.20;;
66402;SDS011;53212;52.112;5.144;2023-09-19T12:53:45;2.70;;;1.40;;
66402;SDS011;53212;52.112;5.144;2023-09-19T12:56:16;2.80;;;1.30;;
66402;SDS011;53212;52.112;5.144;2023-09-19T13:01:15;7.20;;;1.40;;
66402;SDS011;53212;52.112;5.144;2023-09-19T13:03:41;3.10;;;1.20;;
66402;SDS011;53212;52.112;5.144;2023-09-19T13:06:07;5.50;;;1.60;;
66402;SDS011;53212;52.112;5.144;2023-09-19T13:08:39;4.10;;;1.40;;
66402;SDS011;53212;52.112;5.144;2023-09-19T13:11:16;4.00;;;1.40;;
66402;SDS011;53212;52.112;5.144;2023-09-19T13:25:04;2.70;;;1.30;;
66402;SDS011;53212;52.112;5.144;2023-09-19T13:27:32;5.60;;;1.50;;
66402;SDS011;53212;52.112;5.144;2023-09-19T13:29:58;3.70;;;1.30;;
66402;SDS011;53212;52.112;5.144;2023-09-19T13:32:24;2.50;;;1.20;;
66402;SDS011;53212;52.112;5.144;2023-09-19T13:34:49;3.50;;;1.30;;
66402;SDS011;53212;52.112;5.144;2023-09-19T13:37:16;3.60;;;1.30;;
66402;SDS011;53212;52.112;5.144;2023-09-19T13:39:43;1.90;;;1.20;;
66402;SDS011;53212;52.112;5.144;2023-09-19T13:42:13;3.40;;;1.80;;
66402;SDS011;53212;52.112;5.144;2023-09-19T13:44:39;6.50;;;1.40;;
66402;SDS011;53212;52.112;5.144;2023-09-19T13:47:06;5.00;;;1.40;;
66402;SDS011;53212;52.112;5.144;2023-09-19T13:49:35;3.70;;;1.50;;
66402;SDS011;53212;52.112;5.144;2023-09-19T13:52:01;4.50;;;1.40;;
66402;SDS011;53212;52.112;5.144;2023-09-19T13:54:30;4.30;;;1.20;;
66402;SDS011;53212;52.112;5.144;2023-09-19T13:56:55;6.30;;;1.40;;
66402;SDS011;53212;52.112;5.144;2023-09-19T13:59:21;4.80;;;1.70;;
66402;SDS011;53212;52.112;5.144;2023-09-19T14:01:51;3.40;;;1.30;;
66402;SDS011;53212;52.112;5.144;2023-09-19T14:04:19;4.90;;;1.40;;
66402;SDS011;53212;52.112;5.144;2023-09-19T14:06:46;3.40;;;1.50;;
66402;SDS011;53212;52.112;5.144;2023-09-19T14:09:11;5.10;;;1.80;;
66402;SDS011;53212;52.112;5.144;2023-09-19T14:11:39;7.60;;;1.50;;
66402;SDS011;53212;52.112;5.144;2023-09-19T14:14:04;2.80;;;1.60;;
66402;SDS011;53212;52.112;5.144;2023-09-19T14:16:31;3.60;;;1.40;;
66402;SDS011;53212;52.112;5.144;2023-09-19T14:18:59;3.30;;;1.60;;
66402;SDS011;53212;52.112;5.144;2023-09-19T14:21:25;5.90;;;1.90;;
66402;SDS011;53212;52.112;5.144;2023-09-19T14:23:51;2.60;;;1.90;;
66402;SDS011;53212;52.112;5.144;2023-09-19T14:26:16;6.70;;;2.00;;
66402;SDS011;53212;52.112;5.144;2023-09-19T14:28:43;4.60;;;2.00;;
66402;SDS011;53212;52.112;5.144;2023-09-19T14:31:10;3.70;;;1.70;;
66402;SDS011;53212;52.112;5.144;2023-09-19T14:33:37;6.40;;;1.80;;
66402;SDS011;53212;52.112;5.144;2023-09-19T14:36:07;4.80;;;1.90;;
66402;SDS011;53212;52.112;5.144;2023-09-19T14:38:35;7.70;;;2.00;;
66402;SDS011;53212;52.112;5.144;2023-09-19T14:41:02;3.50;;;1.70;;
66402;SDS011;53212;52.112;5.144;2023-09-19T14:43:28;10.30;;;2.40;;
66402;SDS011;53212;52.112;5.144;2023-09-19T14:46:07;3.60;;;1.70;;
66402;SDS011;53212;52.112;5.144;2023-09-19T14:48:33;5.20;;;2.10;;
66402;SDS011;53212;52.112;5.144;2023-09-19T14:51:06;7.40;;;2.10;;
66402;SDS011;53212;52.112;5.144;2023-09-19T14:53:36;6.20;;;2.00;;
66402;SDS011;53212;52.112;5.144;2023-09-19T14:56:07;4.90;;;2.10;;
66402;SDS011;53212;52.112;5.144;2023-09-19T14:58:34;5.90;;;1.80;;
66402;SDS011;53212;52.112;5.144;2023-09-19T15:01:11;4.30;;;2.00;;
66402;SDS011;53212;52.112;5.144;2023-09-19T15:03:39;7.20;;;2.40;;
66402;SDS011;53212;52.112;5.144;2023-09-19T15:06:07;5.80;;;2.00;;
66402;SDS011;53212;52.112;5.144;2023-09-19T15:08:35;6.10;;;2.10;;
66402;SDS011;53212;52.112;5.144;2023-09-19T15:11:08;5.80;;;1.70;;
66402;SDS011;53212;52.112;5.144;2023-09-19T15:13:36;5.30;;;1.70;;
66402;SDS011;53212;52.112;5.144;2023-09-19T15:16:03;6.00;;;2.10;;
66402;SDS011;53212;52.112;5.144;2023-09-19T15:18:31;4.20;;;1.80;;
66402;SDS011;53212;52.112;5.144;2023-09-19T15:21:02;5.50;;;1.70;;
66402;SDS011;53212;52.112;5.144;2023-09-19T15:23:29;4.60;;;1.30;;
66402;SDS011;53212;52.112;5.144;2023-09-19T15:25:56;7.20;;;1.90;;
66402;SDS011;53212;52.112;5.144;2023-09-19T15:28:22;5.80;;;2.20;;
66402;SDS011;53212;52.112;5.144;2023-09-19T15:30:49;7.20;;;2.50;;
66402;SDS011;53212;52.112;5.144;2023-09-19T15:33:15;5.70;;;1.70;;
66402;SDS011;53212;52.112;5.144;2023-09-19T15:35:40;3.50;;;1.60;;
66402;SDS011;53212;52.112;5.144;2023-09-19T15:38:07;3.90;;;2.00;;
66402;SDS011;53212;52.112;5.144;2023-09-19T15:40:32;5.70;;;1.90;;
66402;SDS011;53212;52.112;5.144;2023-09-19T15:42:58;4.80;;;1.70;;
66402;SDS011;53212;52.112;5.144;2023-09-19T15:45:25;6.10;;;2.20;;
66402;SDS011;53212;52.112;5.144;2023-09-19T15:47:51;5.00;;;1.70;;
66402;SDS011;53212;52.112;5.144;2023-09-19T15:50:17;2.80;;;1.50;;
66402;SDS011;53212;52.112;5.144;2023-09-19T15:52:42;3.40;;;1.60;;
66402;SDS011;53212;52.112;5.144;2023-09-19T15:55:08;4.30;;;2.20;;
66402;SDS011;53212;52.112;5.144;2023-09-19T15:57:38;11.10;;;2.10;;
66402;SDS011;53212;52.112;5.144;2023-09-19T16:00:05;6.50;;;2.40;;
66402;SDS011;53212;52.112;5.144;2023-09-19T16:02:37;4.00;;;1.70;;
66402;SDS011;53212;52.112;5.144;2023-09-19T16:05:03;4.20;;;2.00;;
66402;SDS011;53212;52.112;5.144;2023-09-19T16:07:31;5.60;;;1.90;;